Time;durP1;ratioP1;P1;durP2;ratioP2;P2;SDS_P1;SDS_P2;PMS_P1;PMS_P2;Temp;Humidity;BMP_temperature;BMP_pressure;BME280_temperature;BME280_humidity;BME280_pressure;Samples;Min_cycle;Max_cycle;Signal;HPM_P1;HPM_P2
2023/05/02 00:01:09;;;;;;;8.40;6.50;;;;;;;;;;6312471;22;20912;-89
2023/05/02 00:03:38;;;;;;;6.13;5.47;;;;;;;;;;6311888;22;20416;-88
2023/05/02 00:06:05;;;;;;;8.77;7.30;;;;;;;;;;6311948;22;20396;-89
2023/05/02 00:08:32;;;;;;;8.63;5.83;;;;;;;;;;6311839;22;20468;-88
2023/05/02 00:11:04;;;;;;;7.00;5.47;;;;;;;;;;6315123;22;20415;-88
2023/05/02 00:13:31;;;;;;;7.83;6.83;;;;;;;;;;6313479;22;20392;-89
2023/05/02 00:16:01;;;;;;;9.23;6.20;;;;;;;;;;6312902;22;20471;-89
2023/05/02 00:18:28;;;;;;;7.13;6.30;;;14.20;99.90;;;;;;6311969;22;20420;-89
2023/05/02 00:20:56;;;;;;;6.50;6.00;;;14.10;99.90;;;;;;6323360;22;20393;-88
2023/05/02 00:23:23;;;;;;;7.87;6.50;;;14.40;11.80;;;;;;6322603;22;20404;-88
2023/05/02 00:25:50;;;;;;;10.50;6.03;;;;;;;;;;6316523;22;20432;-88
2023/05/02 00:28:19;;;;;;;7.10;6.50;;;;;;;;;;6314599;22;20450;-89
2023/05/02 00:30:50;;;;;;;10.87;6.87;;;;;;;;;;6315805;22;20465;-88
2023/05/02 00:33:18;;;;;;;8.03;5.90;;;;;;;;;;6335725;22;20403;-88
2023/05/02 00:35:45;;;;;;;7.77;6.73;;;;;;;;;;6336378;22;20392;-88
2023/05/02 00:38:12;;;;;;;10.13;6.00;;;;;;;;;;6336844;22;20409;-88
2023/05/02 00:40:44;;;;;;;5.50;5.00;;;14.00;99.90;;;;;;6337000;22;20400;-88
2023/05/02 00:43:11;;;;;;;6.90;6.30;;;;;;;;;;6331393;22;20479;-88
2023/05/02 00:45:42;;;;;;;6.40;5.53;;;13.90;99.90;;;;;;6336463;22;20384;-87
2023/05/02 00:48:09;;;;;;;7.77;5.70;;;;;;;;;;6327615;22;20451;-88
2023/05/02 00:50:39;;;;;;;6.70;5.97;;;13.90;99.90;;;;;;6316319;22;20762;-88
2023/05/02 00:53:06;;;;;;;6.27;5.67;;;13.80;99.90;;;;;;6317985;22;20487;-88
2023/05/02 00:55:34;;;;;;;7.53;6.77;;;;;;;;;;6318083;22;20404;-88
2023/05/02 00:58:04;;;;;;;7.47;6.73;;;13.80;99.90;;;;;;6329181;22;20415;-88
2023/05/02 01:00:39;;;;;;;6.53;5.93;;;13.80;99.90;;;;;;6331563;22;20369;-87
2023/05/02 01:03:15;;;;;;;6.47;5.83;;;13.80;99.90;;;;;;6336212;22;20384;-87
2023/05/02 01:05:56;;;;;;;6.27;5.67;;;13.70;99.90;;;;;;6337282;22;20380;-87
2023/05/02 01:08:34;;;;;;;6.27;5.73;;;13.70;99.90;;;;;;6336054;22;20499;-87
2023/05/02 01:11:18;;;;;;;8.30;5.97;;;13.60;99.90;;;;;;6336421;22;20446;-88
2023/05/02 01:13:47;;;;;;;6.47;5.90;;;13.60;99.90;;;;;;6333624;22;20404;-88
2023/05/02 01:16:19;;;;;;;7.63;6.33;;;13.50;7.40;;;;;;6329791;22;20404;-88
2023/05/02 01:18:48;;;;;;;6.07;5.50;;;;;;;;;;6316890;22;20412;-88
2023/05/02 01:21:15;;;;;;;8.53;5.60;;;;;;;;;;6312576;22;20388;-88
2023/05/02 01:23:52;;;;;;;8.53;5.77;;;13.40;99.90;;;;;;6313001;22;20419;-88
2023/05/02 01:26:32;;;;;;;6.83;6.20;;;13.50;15.10;;;;;;6312928;22;20395;-88
2023/05/02 01:29:04;;;;;;;6.93;6.27;;;13.40;99.90;;;;;;6313736;22;20782;-88
2023/05/02 01:31:36;;;;;;;7.50;6.70;;;13.40;99.90;;;;;;6313161;22;20427;-88
2023/05/02 01:34:07;;;;;;;6.67;6.07;;;13.40;99.90;;;;;;6317140;22;20402;-87
2023/05/02 01:36:36;;;;;;;6.10;5.60;;;13.40;99.90;;;;;;6317483;22;20894;-88
2023/05/02 01:39:06;;;;;;;8.60;6.60;;;13.40;99.90;;;;;;6319131;22;20443;-87
2023/05/02 01:41:35;;;;;;;11.07;6.80;;;13.40;99.90;;;;;;6333903;22;20375;-87
2023/05/02 01:44:04;;;;;;;7.00;6.10;;;;;;;;;;6336454;22;20395;-87
2023/05/02 01:46:38;;;;;;;8.50;7.00;;;13.40;99.90;;;;;;6336107;22;20467;-87
2023/05/02 01:49:08;;;;;;;7.70;6.90;;;13.50;99.90;;;;;;6333397;22;20428;-87
2023/05/02 01:51:37;;;;;;;8.37;5.83;;;13.50;99.90;;;;;;6315325;22;20415;-87
2023/05/02 01:54:09;;;;;;;6.43;5.83;;;13.50;99.90;;;;;;6313852;22;20443;-87
2023/05/02 01:56:39;;;;;;;7.00;5.70;;;13.50;99.90;;;;;;6316505;22;20449;-88
2023/05/02 01:59:13;;;;;;;7.30;6.10;;;13.50;99.90;;;;;;6330825;22;20426;-86
2023/05/02 02:01:42;;;;;;;8.60;6.40;;;13.50;99.90;;;;;;6336498;22;20381;-86
2023/05/02 02:04:11;;;;;;;7.43;6.60;;;13.50;99.90;;;;;;6336280;22;20412;-86
2023/05/02 02:06:38;;;;;;;6.20;5.60;;;;;;;;;;6305475;22;20408;-86
2023/05/02 02:09:05;;;;;;;6.73;5.40;;;;;;;;;;6294900;22;20556;-87
2023/05/02 02:11:36;;;;;;;6.10;5.50;;;13.40;99.90;;;;;;6285679;22;20480;-88
2023/05/02 02:14:20;;;;;;;6.53;5.63;;;13.30;86.60;;;;;;6282261;22;20424;-88
2023/05/02 02:16:53;;;;;;;5.70;5.10;;;13.40;99.90;;;;;;6283243;22;20401;-87
2023/05/02 02:19:23;;;;;;;6.47;5.20;;;13.30;99.90;;;;;;6281868;22;20492;-88
2023/05/02 02:21:51;;;;;;;6.37;5.73;;;13.40;66.00;;;;;;6282731;22;20425;-88
2023/05/02 02:24:21;;;;;;;9.63;7.07;;;13.30;99.90;;;;;;6282468;22;20405;-88
2023/05/02 02:26:48;;;;;;;5.40;4.90;;;13.30;99.90;;;;;;6281778;22;20415;-88
2023/05/02 02:29:17;;;;;;;8.23;5.67;;;;;;;;;;6282527;22;20438;-88
2023/05/02 02:31:44;;;;;;;6.00;5.47;;;;;;;;;;6282774;22;20451;-88
2023/05/02 02:34:11;;;;;;;6.27;5.77;;;;;;;;;;6285461;22;20413;-88
2023/05/02 02:36:46;;;;;;;7.30;4.93;;;12.90;99.90;;;;;;6301407;22;20451;-87
2023/05/02 02:39:27;;;;;;;7.70;5.80;;;12.80;99.90;;;;;;6296308;22;20463;-87
2023/05/02 02:42:04;;;;;;;7.33;5.10;;;12.80;99.90;;;;;;6284756;22;20417;-88
2023/05/02 02:44:49;;;;;;;9.17;5.57;;;12.80;99.90;;;;;;6288710;22;20404;-88
2023/05/02 02:47:23;;;;;;;4.70;4.30;;;12.70;99.90;;;;;;6284429;22;20393;-88
2023/05/02 02:49:52;;;;;;;9.43;6.13;;;;;;;;;;6282097;22;20728;-88
2023/05/02 02:52:26;;;;;;;5.50;5.10;;;12.60;99.90;;;;;;6281007;22;20891;-88
2023/05/02 02:54:59;;;;;;;7.73;6.30;;;12.70;99.90;;;;;;6281335;22;20444;-86
2023/05/02 02:57:31;;;;;;;6.17;5.43;;;12.50;99.90;;;;;;6288633;22;20428;-87
2023/05/02 03:00:11;;;;;;;4.93;4.60;;;12.50;99.90;;;;;;6290995;22;20400;-87
2023/05/02 03:02:41;;;;;;;6.80;6.20;;;12.40;99.90;;;;;;6292664;22;20387;-87
2023/05/02 03:05:11;;;;;;;5.60;4.70;;;12.40;99.90;;;;;;6293636;22;20472;-87
2023/05/02 03:07:38;;;;;;;5.37;4.80;;;;;;;;;;6289064;22;20420;-88
2023/05/02 03:10:08;;;;;;;5.93;5.13;;;12.20;1.00;;;;;;6294740;22;20425;-87
2023/05/02 03:12:38;;;;;;;6.03;5.20;;;;;;;;;;6293491;22;20407;-89
2023/05/02 03:15:39;;;;;;;5.73;5.23;;;12.10;99.90;;;;;;6283966;22;20421;-88
2023/05/02 03:18:08;;;;;;;6.93;5.60;;;;;;;;;;6282302;22;20413;-87
2023/05/02 03:20:39;;;;;;;4.80;4.40;;;;;;;;;;6305523;22;20407;-87
2023/05/02 03:23:07;;;;;;;5.17;4.67;;;;;;;;;;6285924;22;20423;-88
2023/05/02 03:25:35;;;;;;;5.33;4.90;;;;;;;;;;6283864;22;20795;-88
2023/05/02 03:28:05;;;;;;;6.90;5.33;;;;;;;;;;6283321;22;20970;-87
2023/05/02 03:30:39;;;;;;;4.90;4.50;;;;;;;;;;6284391;22;20405;-88
2023/05/02 03:33:12;;;;;;;5.53;5.03;;;;;;;;;;6284392;22;20435;-87
2023/05/02 03:35:45;;;;;;;9.23;5.17;;;;;;;;;;6287564;22;20409;-87
2023/05/02 03:38:18;;;;;;;5.70;4.73;;;;;;;;;;6292751;22;20405;-87
2023/05/02 03:40:46;;;;;;;4.67;4.27;;;;;;;;;;6287724;22;20876;-87
2023/05/02 03:43:16;;;;;;;4.73;4.33;;;;;;;;;;6288385;22;20882;-87
2023/05/02 03:45:46;;;;;;;7.50;5.40;;;;;;;;;;6289986;22;20417;-87
2023/05/02 03:48:18;;;;;;;4.73;4.33;;;;;;;;;;6290981;22;20444;-87
2023/05/02 03:50:47;;;;;;;8.60;5.40;;;;;;;;;;6289905;22;20416;-87
2023/05/02 03:53:16;;;;;;;6.43;4.80;;;;;;;;;;6290038;22;20484;-89
2023/05/02 03:55:46;;;;;;;4.97;4.57;;;;;;;;;;6303190;22;20500;-86
2023/05/02 03:58:14;;;;;;;5.53;4.73;;;;;;;;;;6306663;22;20436;-86
2023/05/02 04:00:42;;;;;;;8.90;4.73;;;;;;;;;;6305615;22;20417;-87
2023/05/02 04:03:13;;;;;;;6.20;5.67;;;11.70;1.00;;;;;;6298323;22;20477;-87
2023/05/02 04:05:43;;;;;;;7.37;6.27;;;;;;;;;;6291183;22;20441;-87
2023/05/02 04:08:10;;;;;;;6.07;4.90;;;;;;;;;;6291542;22;20768;-87
2023/05/02 04:10:37;;;;;;;5.70;5.10;;;;;;;;;;6300538;22;20420;-87
2023/05/02 04:13:06;;;;;;;6.00;5.50;;;;;;;;;;6287906;22;20413;-89
2023/05/02 04:15:33;;;;;;;6.70;4.53;;;;;;;;;;6288772;22;20416;-88
2023/05/02 04:18:01;;;;;;;8.10;5.03;;;;;;;;;;6290403;22;20474;-88
2023/05/02 04:20:30;;;;;;;7.20;4.90;;;;;;;;;;6287488;22;20413;-89
2023/05/02 04:22:57;;;;;;;8.17;4.70;;;;;;;;;;6290033;22;20485;-86
2023/05/02 04:25:24;;;;;;;7.60;5.53;;;11.70;1.00;;;;;;6286735;22;21000;-85
2023/05/02 04:27:51;;;;;;;7.40;4.90;;;11.70;1.00;;;;;;6286544;22;20383;-85
2023/05/02 04:30:18;;;;;;;5.73;5.23;;;11.80;1.00;;;;;;6286894;22;20483;-86
2023/05/02 04:32:45;;;;;;;9.00;5.83;;;11.80;1.00;;;;;;6287950;22;20403;-87
2023/05/02 04:35:11;;;;;;;7.83;5.80;;;11.90;1.00;;;;;;6287625;22;20443;-87
2023/05/02 04:37:40;;;;;;;5.87;4.40;;;11.80;1.00;;;;;;6287767;22;20750;-87
2023/05/02 04:40:07;;;;;;;5.67;4.80;;;11.90;1.00;;;;;;6285538;22;20487;-86
2023/05/02 04:42:34;;;;;;;7.47;3.93;;;11.90;1.00;;;;;;6283876;22;20461;-87
2023/05/02 04:45:01;;;;;;;6.37;4.40;;;11.90;99.90;;;;;;6286634;22;20733;-87
2023/05/02 04:47:28;;;;;;;6.83;4.77;;;11.90;1.00;;;;;;6299331;22;20406;-86
2023/05/02 04:49:55;;;;;;;6.30;4.73;;;10.60;1.00;;;;;;6300299;22;20479;-86
2023/05/02 04:52:22;;;;;;;4.73;4.10;;;11.80;99.90;;;;;;6290365;22;20416;-86
2023/05/02 04:54:50;;;;;;;9.60;4.20;;;12.10;1.00;;;;;;6296634;22;20396;-86
2023/05/02 04:57:17;;;;;;;8.23;4.80;;;12.40;19.80;;;;;;6301439;22;20405;-86
2023/05/02 04:59:44;;;;;;;10.10;4.00;;;12.20;1.00;;;;;;6288572;22;20401;-87
2023/05/02 05:02:11;;;;;;;6.30;4.13;;;12.20;99.90;;;;;;6288435;22;20536;-87
2023/05/02 05:04:38;;;;;;;4.87;4.47;;;12.00;1.00;;;;;;6287415;22;20432;-85
2023/05/02 05:07:05;;;;;;;7.43;4.80;;;12.20;1.00;;;;;;6287632;22;20409;-87
2023/05/02 05:09:32;;;;;;;5.77;4.57;;;12.00;1.00;;;;;;6286597;22;20448;-87
2023/05/02 05:12:00;;;;;;;5.40;4.47;;;12.10;1.00;;;;;;6290541;22;20425;-86
2023/05/02 05:14:27;;;;;;;10.03;4.43;;;12.20;1.00;;;;;;6294558;22;20418;-87
2023/05/02 05:16:54;;;;;;;8.80;4.83;;;;;;;;;;6296814;22;20409;-87
2023/05/02 05:19:21;;;;;;;5.80;4.50;;;12.40;1.00;;;;;;6304219;22;20377;-85
2023/05/02 05:21:48;;;;;;;8.73;5.03;;;12.60;99.90;;;;;;6306062;22;20381;-88
2023/05/02 05:24:15;;;;;;;7.13;5.40;;;12.50;1.00;;;;;;6303699;22;20440;-85
2023/05/02 05:26:42;;;;;;;7.43;4.57;;;12.40;1.00;;;;;;6305875;22;20385;-87
2023/05/02 05:29:10;;;;;;;8.70;5.47;;;12.40;99.90;;;;;;6305876;22;20449;-85
2023/05/02 05:31:37;;;;;;;13.03;5.53;;;12.40;1.00;;;;;;6305546;22;20393;-85
2023/05/02 05:34:04;;;;;;;6.00;5.00;;;;;;;;;;6303416;22;20474;-86
2023/05/02 05:36:31;;;;;;;4.33;3.93;;;12.40;1.00;;;;;;6290173;22;20393;-86
2023/05/02 05:38:58;;;;;;;8.10;5.93;;;12.30;1.00;;;;;;6286626;22;20406;-86
2023/05/02 05:41:25;;;;;;;7.47;5.40;;;;;;;;;;6286187;22;20416;-85
2023/05/02 05:43:52;;;;;;;8.10;4.90;;;12.70;1.00;;;;;;6286629;22;20431;-88
2023/05/02 05:46:20;;;;;;;6.90;5.80;;;12.60;1.00;;;;;;6286428;22;20411;-88
2023/05/02 05:48:47;;;;;;;6.63;4.90;;;12.40;1.00;;;;;;6286611;22;20401;-87
2023/05/02 05:51:14;;;;;;;12.63;5.50;;;12.40;1.00;;;;;;6287339;22;20409;-87
2023/05/02 05:53:40;;;;;;;11.07;6.50;;;12.90;99.90;;;;;;6287052;22;20425;-87
2023/05/02 05:56:11;;;;;;;5.60;5.10;;;12.60;1.00;;;;;;6291935;22;20480;-86
2023/05/02 05:58:38;;;;;;;8.33;6.83;;;12.60;1.00;;;;;;6302006;22;20381;-88
2023/05/02 06:01:05;;;;;;;10.10;6.10;;;12.70;1.00;;;;;;6297804;22;20432;-86
2023/05/02 06:03:33;;;;;;;8.70;5.70;;;12.50;1.00;;;;;;6299708;22;20435;-88
2023/05/02 06:06:00;;;;;;;8.70;5.87;;;12.50;1.00;;;;;;6287016;22;20433;-87
2023/05/02 06:08:26;;;;;;;10.43;5.73;;;12.60;1.00;;;;;;6287623;22;20401;-87
2023/05/02 06:10:53;;;;;;;6.60;5.90;;;12.60;1.00;;;;;;6288757;22;20480;-86
2023/05/02 06:13:20;;;;;;;11.67;6.17;;;13.00;99.90;;;;;;6290337;22;20425;-87
2023/05/02 06:15:48;;;;;;;9.80;6.20;;;12.40;99.90;;;;;;6291205;22;20424;-87
2023/05/02 06:18:15;;;;;;;8.23;6.17;;;12.70;1.00;;;;;;6290038;22;20375;-87
2023/05/02 06:20:43;;;;;;;7.73;6.97;;;12.80;1.00;;;;;;6293856;22;20486;-87
2023/05/02 06:23:10;;;;;;;7.77;5.53;;;12.60;1.00;;;;;;6294087;22;20429;-86
2023/05/02 06:25:40;;;;;;;9.13;6.53;;;12.60;1.00;;;;;;6296534;22;20401;-87
2023/05/02 06:28:08;;;;;;;6.87;6.07;;;12.70;1.00;;;;;;6295230;22;20424;-86
2023/05/02 06:30:35;;;;;;;14.03;6.20;;;12.80;1.00;;;;;;6293297;22;20586;-88
2023/05/02 06:33:05;;;;;;;9.10;5.47;;;12.70;1.00;;;;;;6286756;22;20432;-86
2023/05/02 06:35:31;;;;;;;6.50;5.80;;;12.70;1.00;;;;;;6287604;22;20383;-87
2023/05/02 06:38:00;;;;;;;11.47;6.47;;;12.70;1.00;;;;;;6289243;22;20399;-86
2023/05/02 06:40:27;;;;;;;9.57;7.53;;;12.80;99.90;;;;;;6286094;22;20476;-85
2023/05/02 06:42:53;;;;;;;8.80;6.00;;;12.50;1.00;;;;;;6282019;22;20428;-86
2023/05/02 06:45:20;;;;;;;11.40;7.00;;;12.40;1.00;;;;;;6283596;22;20804;-87
2023/05/02 06:47:47;;;;;;;8.20;6.67;;;12.60;99.90;;;;;;6285102;22;20480;-86
2023/05/02 06:50:14;;;;;;;13.90;8.53;;;12.50;1.00;;;;;;6260582;22;20726;-86
2023/05/02 06:52:41;;;;;;;10.40;7.87;;;12.60;1.00;;;;;;6291218;22;20489;-86
2023/05/02 06:55:10;;;;;;;13.87;8.43;;;;;;;;;;6295014;22;20409;-87
2023/05/02 06:57:37;;;;;;;10.37;8.00;;;12.70;1.00;;;;;;6290464;22;20405;-87
2023/05/02 07:00:05;;;;;;;12.70;9.27;;;13.50;1.00;;;;;;6288222;22;20748;-87
2023/05/02 07:02:32;;;;;;;12.57;8.50;;;;;;;;;;6299101;22;20405;-86
2023/05/02 07:04:59;;;;;;;9.90;8.27;;;12.90;1.00;;;;;;6304876;22;20426;-86
2023/05/02 07:07:25;;;;;;;10.30;7.30;;;12.70;1.00;;;;;;6292573;22;20397;-87
2023/05/02 07:09:52;;;;;;;11.60;7.80;;;12.60;1.00;;;;;;6287869;22;20460;-88
2023/05/02 07:12:21;;;;;;;10.23;7.70;;;13.70;99.90;;;;;;6286590;22;20893;-87
2023/05/02 07:14:48;;;;;;;7.80;7.00;;;12.90;1.00;;;;;;6285690;22;20896;-87
2023/05/02 07:17:15;;;;;;;11.03;7.57;;;13.00;1.00;;;;;;6287329;22;20413;-88
2023/05/02 07:19:42;;;;;;;9.37;7.57;;;;;;;;;;6290120;22;20444;-87
2023/05/02 07:22:09;;;;;;;7.03;6.30;;;13.00;99.90;;;;;;6288795;22;20766;-87
2023/05/02 07:24:40;;;;;;;8.23;6.97;;;13.00;1.00;;;;;;6289166;22;20447;-87
2023/05/02 07:27:06;;;;;;;10.13;7.60;;;13.10;1.00;;;;;;6289671;22;20440;-87
2023/05/02 07:29:35;;;;;;;10.17;7.40;;;13.30;1.00;;;;;;6288986;22;20435;-87
2023/05/02 07:32:02;;;;;;;7.27;6.57;;;13.40;1.00;;;;;;6288864;22;20404;-87
2023/05/02 07:34:29;;;;;;;8.77;6.77;;;13.30;1.00;;;;;;6288222;22;20432;-87
2023/05/02 07:36:55;;;;;;;10.50;6.70;;;13.70;1.00;;;;;;6289949;22;20409;-87
2023/05/02 07:39:24;;;;;;;11.00;6.77;;;13.80;1.00;;;;;;6289484;22;20444;-88
2023/05/02 07:41:52;;;;;;;14.33;8.43;;;13.70;1.00;;;;;;6290285;22;20425;-87
2023/05/02 07:44:19;;;;;;;9.00;7.27;;;13.80;1.00;;;;;;6290223;22;20421;-86
2023/05/02 07:46:47;;;;;;;12.63;7.60;;;13.70;1.00;;;;;;6298539;22;20422;-87
2023/05/02 07:49:14;;;;;;;13.70;7.57;;;13.90;1.00;;;;;;6300170;22;20389;-87
2023/05/02 07:51:41;;;;;;;9.10;6.33;;;13.70;99.90;;;;;;6289097;22;20435;-87
2023/05/02 07:54:16;;;;;;;8.60;7.17;;;13.60;99.90;;;;;;6289001;22;20425;-86
2023/05/02 07:56:43;;;;;;;36.87;9.50;;;13.80;1.00;;;;;;6288792;22;20420;-87
2023/05/02 07:59:10;;;;;;;14.83;7.60;;;;;;;;;;6292816;22;20436;-87
2023/05/02 08:01:37;;;;;;;9.43;6.27;;;;;;;;;;6290828;22;20448;-87
2023/05/02 08:04:05;;;;;;;11.23;6.57;;;13.80;1.00;;;;;;6290863;22;20449;-89
2023/05/02 08:06:33;;;;;;;10.20;7.97;;;13.80;99.90;;;;;;6295470;22;20415;-86
2023/05/02 08:09:00;;;;;;;13.33;7.30;;;13.80;99.90;;;;;;6297950;22;20439;-85
2023/05/02 08:11:27;;;;;;;12.20;7.33;;;13.70;1.00;;;;;;6296456;22;20386;-87
2023/05/02 08:13:54;;;;;;;7.00;5.87;;;13.70;1.00;;;;;;6293012;22;20751;-87
2023/05/02 08:16:21;;;;;;;7.10;6.03;;;13.70;1.00;;;;;;6292095;22;20469;-87
2023/05/02 08:18:48;;;;;;;5.90;5.40;;;13.80;1.00;;;;;;6298590;22;20401;-87
2023/05/02 08:21:16;;;;;;;13.97;6.53;;;13.80;1.00;;;;;;6298293;22;20437;-87
2023/05/02 08:23:45;;;;;;;11.90;7.37;;;13.60;1.00;;;;;;6291073;22;20433;-87
2023/05/02 08:26:13;;;;;;;7.10;6.03;;;13.70;1.00;;;;;;6292290;22;20405;-87
2023/05/02 08:28:40;;;;;;;8.57;6.13;;;13.90;1.00;;;;;;6294752;22;20412;-85
2023/05/02 08:31:07;;;;;;;8.43;6.20;;;;;;;;;;6296065;22;20397;-87
2023/05/02 08:33:34;;;;;;;7.27;5.93;;;14.10;1.00;;;;;;6295538;22;20416;-85
2023/05/02 08:36:01;;;;;;;9.47;6.03;;;13.80;1.00;;;;;;6299091;22;20409;-87
2023/05/02 08:38:29;;;;;;;7.53;6.20;;;13.70;1.00;;;;;;6305133;22;20401;-87
2023/05/02 08:40:56;;;;;;;9.43;5.70;;;13.80;1.00;;;;;;6303409;22;20456;-86
2023/05/02 08:43:23;;;;;;;8.47;5.73;;;13.70;99.90;;;;;;6305590;22;20404;-85
2023/05/02 08:45:53;;;;;;;9.90;6.47;;;13.60;1.00;;;;;;6306076;22;20389;-86
2023/05/02 08:48:20;;;;;;;8.70;6.77;;;13.70;1.00;;;;;;6306019;22;20393;-86
2023/05/02 08:50:48;;;;;;;6.90;5.80;;;13.90;99.90;;;;;;6306172;22;20424;-87
2023/05/02 08:53:15;;;;;;;9.93;6.37;;;14.10;99.90;;;;;;6304664;22;20429;-88
2023/05/02 08:56:29;;;;;;;9.67;5.90;;;14.00;1.00;;;;;;6295771;22;20389;-91
2023/05/02 08:58:56;;;;;;;8.00;6.13;;;14.10;1.00;;;;;;6197395;23;20388;-87
2023/05/02 09:01:27;;;;;;;10.70;6.30;;;14.20;1.00;;;;;;6194929;23;20491;-84
2023/05/02 09:03:58;;;;;;;8.00;5.73;;;14.40;1.00;;;;;;6244321;22;20762;-89
2023/05/02 09:06:36;;;;;;;5.80;4.30;;;;;;;;;;6287632;22;20410;-88
2023/05/02 09:09:14;;;;;;;5.80;5.20;;;14.70;1.00;;;;;;6288110;22;20409;-88
2023/05/02 09:14:31;;;;;;;8.70;4.37;;;;;;;;;;6283078;22;20432;-88
2023/05/02 09:39:34;;;;;;;5.93;5.13;;;;;;;;;;6162357;23;20431;-88
2023/05/02 09:44:51;;;;;;;4.63;4.23;;;;;;;;;;6281422;22;20459;-89
2023/05/02 09:48:05;;;;;;;7.33;4.03;;;14.20;1.00;;;;;;6285963;22;20411;-89
2023/05/02 09:50:36;;;;;;;4.90;3.87;;;;;;;;;;6286399;22;20437;-91
2023/05/02 09:53:15;;;;;;;6.10;4.00;;;13.80;9.40;;;;;;6300421;22;20417;-87
2023/05/02 09:56:02;;;;;;;4.07;3.67;;;13.40;1.00;;;;;;6305069;22;20367;-90
2023/05/02 09:58:31;;;;;;;4.93;3.87;;;;;;;;;;6304120;22;20416;-87
2023/05/02 10:01:04;;;;;;;4.87;4.30;;;;;;;;;;6304193;22;20419;-84
2023/05/02 10:03:41;;;;;;;4.43;3.73;;;13.70;33.60;;;;;;6305175;22;20436;-86
2023/05/02 10:06:51;;;;;;;6.00;4.67;;;13.90;43.20;;;;;;6304782;22;20434;-90
2023/05/02 10:12:06;;;;;;;7.60;4.53;;;14.20;1.00;;;;;;6288409;22;20467;-88
2023/05/02 10:14:41;;;;;;;8.00;4.90;;;14.30;1.00;;;;;;6295727;22;20739;-88
2023/05/02 10:17:13;;;;;;;4.93;4.40;;;14.40;1.00;;;;;;6295671;22;20399;-87
2023/05/02 10:19:51;;;;;;;4.37;3.97;;;14.40;1.00;;;;;;6292007;22;20417;-87
2023/05/02 10:24:45;;;;;;;5.50;4.93;;;;;;;;;;6283310;22;20452;-84
2023/05/02 10:27:13;;;;;;;7.03;5.07;;;14.10;1.00;;;;;;6287600;22;20436;-85
2023/05/02 10:29:45;;;;;;;6.27;4.53;;;13.90;1.00;;;;;;6288030;22;20432;-85
2023/05/02 10:32:13;;;;;;;4.40;4.00;;;14.40;1.00;;;;;;6291171;22;20747;-85
2023/05/02 10:34:41;;;;;;;8.30;4.50;;;14.40;1.00;;;;;;6302155;22;20436;-84
2023/05/02 10:37:08;;;;;;;5.10;4.60;;;14.30;1.00;;;;;;6289633;22;20408;-84
2023/05/02 10:39:35;;;;;;;6.50;5.57;;;14.10;1.00;;;;;;6298679;22;20402;-85
2023/05/02 10:42:05;;;;;;;5.83;4.00;;;13.80;1.00;;;;;;6296473;22;20428;-85
2023/05/02 10:44:37;;;;;;;5.00;4.00;;;13.50;99.90;;;;;;6288608;22;20425;-84
2023/05/02 10:47:20;;;;;;;6.00;4.43;;;13.40;1.00;;;;;;6285807;22;20405;-85
2023/05/02 10:49:54;;;;;;;3.90;3.23;;;13.20;99.90;;;;;;6285940;22;20393;-85
2023/05/02 10:52:30;;;;;;;5.10;4.60;;;12.90;92.00;;;;;;6285301;22;20450;-86
2023/05/02 10:55:17;;;;;;;5.40;4.00;;;12.90;1.00;;;;;;6288439;22;20409;-82
2023/05/02 10:58:21;;;;;;;4.07;3.23;;;12.50;27.00;;;;;;6286405;22;20408;-84
2023/05/02 11:00:49;;;;;;;5.10;4.57;;;12.60;1.00;;;;;;6287011;22;20425;-84
2023/05/02 11:03:56;;;;;;;4.47;4.07;;;12.70;99.90;;;;;;6287664;22;20428;-86
2023/05/02 11:06:27;;;;;;;3.97;3.57;;;12.60;99.90;;;;;;6288052;22;20408;-85
2023/05/02 11:08:54;;;;;;;9.17;4.70;;;12.30;99.90;;;;;;6287667;22;20368;-85
2023/05/02 11:11:41;;;;;;;4.20;3.90;;;12.10;89.70;;;;;;6288685;22;20457;-87
2023/05/02 11:14:08;;;;;;;3.87;3.47;;;;;;;;;;6290808;22;20425;-86
2023/05/02 11:17:15;;;;;;;4.40;4.00;;;11.90;1.00;;;;;;6292654;22;20420;-88
2023/05/02 11:20:21;;;;;;;9.13;4.63;;;12.00;1.00;;;;;;6282249;22;20433;-87
2023/05/02 11:22:50;;;;;;;10.73;5.27;;;12.00;1.00;;;;;;6288888;22;20418;-87
2023/05/02 11:25:30;;;;;;;8.50;6.37;;;11.90;99.90;;;;;;6288923;22;20923;-86
2023/05/02 11:27:57;;;;;;;10.87;5.70;;;;;;;;;;6290052;22;20404;-88
2023/05/02 11:30:47;;;;;;;9.93;6.27;;;11.70;1.00;;;;;;6288783;22;20707;-87
2023/05/02 11:33:16;;;;;;;10.50;6.47;;;;;;;;;;6293316;22;20431;-87
2023/05/02 11:35:45;;;;;;;7.27;6.57;;;11.90;99.90;;;;;;6289588;22;20404;-85
2023/05/02 11:38:15;;;;;;;18.63;7.97;;;11.30;99.90;;;;;;6289002;22;20476;-86
2023/05/02 11:40:56;;;;;;;11.53;6.83;;;11.50;99.90;;;;;;6292000;22;20488;-85
2023/05/02 11:43:28;;;;;;;11.50;6.27;;;12.10;99.90;;;;;;6293541;22;20399;-89
2023/05/02 11:45:55;;;;;;;8.17;5.40;;;11.80;1.00;;;;;;6292857;22;20432;-87
2023/05/02 11:48:26;;;;;;;6.93;4.90;;;11.90;99.90;;;;;;6296558;22;20379;-87
2023/05/02 11:50:54;;;;;;;5.20;4.03;;;11.90;1.00;;;;;;6297932;22;20411;-86
2023/05/02 11:53:24;;;;;;;8.27;5.57;;;12.10;1.00;;;;;;6301110;22;20405;-86
2023/05/02 11:55:53;;;;;;;12.43;5.70;;;12.10;1.00;;;;;;6299554;22;20408;-85
2023/05/02 11:58:23;;;;;;;6.97;5.37;;;12.20;1.00;;;;;;6297248;22;20401;-86
2023/05/02 12:00:51;;;;;;;7.00;4.70;;;12.20;1.00;;;;;;6290911;22;20424;-87
2023/05/02 12:03:22;;;;;;;4.90;4.37;;;12.30;1.00;;;;;;6301227;22;20421;-87
2023/05/02 12:05:50;;;;;;;7.60;5.20;;;;;;;;;;6295895;22;20433;-86
2023/05/02 12:08:22;;;;;;;6.23;3.83;;;12.00;99.90;;;;;;6289873;22;20890;-87
2023/05/02 12:10:51;;;;;;;8.30;4.37;;;;;;;;;;6286806;22;20830;-89
2023/05/02 12:13:18;;;;;;;5.70;4.50;;;12.50;1.00;;;;;;6287777;22;20426;-87
2023/05/02 12:15:45;;;;;;;6.33;4.77;;;12.60;1.00;;;;;;6290720;22;20409;-89
2023/05/02 12:18:13;;;;;;;6.40;4.13;;;12.10;99.90;;;;;;6303611;22;20393;-87
2023/05/02 12:20:43;;;;;;;6.00;4.20;;;11.70;1.00;;;;;;6295833;22;20439;-87
2023/05/02 12:23:11;;;;;;;4.33;3.93;;;;;;;;;;6286717;22;20436;-84
2023/05/02 12:25:40;;;;;;;9.67;4.60;;;12.20;1.00;;;;;;6285230;22;20428;-85
2023/05/02 12:28:08;;;;;;;10.93;4.93;;;12.00;1.00;;;;;;6285361;22;20405;-85
2023/05/02 12:30:37;;;;;;;7.43;3.67;;;12.30;1.00;;;;;;6287439;22;20405;-85
2023/05/02 12:33:05;;;;;;;9.10;4.30;;;12.10;1.00;;;;;;6290651;22;20425;-86
2023/05/02 12:35:32;;;;;;;5.50;3.50;;;13.10;1.00;;;;;;6285776;22;20407;-85
2023/05/02 12:38:10;;;;;;;5.53;4.10;;;12.30;1.00;;;;;;6285840;22;20436;-85
2023/05/02 12:40:37;;;;;;;7.90;3.93;;;12.30;1.00;;;;;;6288964;22;20439;-85
2023/05/02 12:43:09;;;;;;;6.00;4.47;;;12.70;1.00;;;;;;6288631;22;20447;-85
2023/05/02 12:45:36;;;;;;;9.37;4.30;;;12.70;1.00;;;;;;6300785;22;20830;-83
2023/05/02 12:48:17;;;;;;;7.40;3.87;;;13.50;1.00;;;;;;6295991;22;20401;-85
2023/05/02 12:50:44;;;;;;;9.63;4.23;;;13.30;1.00;;;;;;6291772;22;20418;-85
2023/05/02 12:53:11;;;;;;;5.17;3.83;;;13.30;99.90;;;;;;6289591;22;20463;-85
2023/05/02 12:55:38;;;;;;;8.53;4.60;;;13.40;99.90;;;;;;6295052;22;20737;-86
2023/05/02 12:58:07;;;;;;;14.03;4.93;;;13.30;99.90;;;;;;6287655;22;21000;-85
2023/05/02 13:00:36;;;;;;;15.10;6.03;;;13.30;1.00;;;;;;6300066;22;20415;-83
2023/05/02 13:03:04;;;;;;;9.20;4.67;;;13.20;1.00;;;;;;6298911;22;20456;-84
2023/05/02 13:05:31;;;;;;;11.43;4.53;;;13.40;99.90;;;;;;6298206;22;20508;-83
2023/05/02 13:07:58;;;;;;;7.23;4.50;;;13.10;1.00;;;;;;6295572;22;20439;-83
2023/05/02 13:10:25;;;;;;;8.60;4.57;;;13.50;1.00;;;;;;6286727;22;20399;-85
2023/05/02 13:12:52;;;;;;;10.20;4.53;;;13.70;99.90;;;;;;6287913;22;20478;-84
2023/05/02 13:15:21;;;;;;;13.30;5.70;;;12.70;99.90;;;;;;6285680;22;20413;-85
2023/05/02 13:17:50;;;;;;;11.93;6.67;;;13.00;99.90;;;;;;6285962;22;20967;-84
2023/05/02 13:20:17;;;;;;;7.60;5.13;;;13.20;99.90;;;;;;6285719;22;20404;-86
2023/05/02 13:22:44;;;;;;;12.53;4.50;;;13.10;99.90;;;;;;6287805;22;20504;-85
2023/05/02 13:25:11;;;;;;;11.00;4.67;;;13.10;16.60;;;;;;6285056;22;20389;-84
2023/05/02 13:27:39;;;;;;;16.10;5.30;;;;;;;;;;6292340;22;20394;-84
2023/05/02 13:30:07;;;;;;;10.57;5.03;;;;;;;;;;6297249;22;20424;-84
2023/05/02 13:32:36;;;;;;;8.70;3.77;;;12.80;99.90;;;;;;6296163;22;20742;-85
2023/05/02 13:35:03;;;;;;;12.37;4.80;;;13.10;99.90;;;;;;6292667;22;20412;-84
2023/05/02 13:37:30;;;;;;;9.37;4.87;;;;;;;;;;6293421;22;20392;-84
2023/05/02 13:39:57;;;;;;;13.63;5.20;;;;;;;;;;6295921;22;20485;-85
2023/05/02 13:42:24;;;;;;;7.60;3.90;;;13.50;99.90;;;;;;6294081;22;20464;-83
2023/05/02 13:44:51;;;;;;;6.33;3.87;;;;;;;;;;6295140;22;20408;-83
2023/05/02 13:47:18;;;;;;;10.93;4.30;;;13.30;99.90;;;;;;6302071;22;20425;-84
2023/05/02 13:49:46;;;;;;;6.10;3.97;;;13.20;99.90;;;;;;6303395;22;21011;-85
2023/05/02 13:52:13;;;;;;;8.83;4.40;;;13.20;99.90;;;;;;6304004;22;20527;-85
2023/05/02 13:54:40;;;;;;;6.93;4.47;;;13.40;99.90;;;;;;6302609;22;20429;-85
2023/05/02 13:57:07;;;;;;;5.80;4.30;;;13.60;99.90;;;;;;6297987;22;20428;-85
2023/05/02 13:59:34;;;;;;;7.17;5.80;;;13.10;99.90;;;;;;6296205;22;20420;-85
2023/05/02 14:02:01;;;;;;;6.53;4.00;;;13.30;99.90;;;;;;6293021;22;20433;-85
2023/05/02 14:04:28;;;;;;;5.90;4.50;;;12.70;99.90;;;;;;6293771;22;20427;-87